createdAt,value
2018-04-07T00:00:05.758Z,57.1
2018-04-07T00:05:03.551Z,57.1
2018-04-07T00:10:11.008Z,5.9
2018-04-07T00:15:10.366Z,57.6
2018-04-07T00:20:05.311Z,57.6
2018-04-07T00:25:13.450Z,57.4
2018-04-07T00:30:35.730Z,57.6
2018-04-07T00:35:33.407Z,57.8
2018-04-07T00:40:25.970Z,57.8
2018-04-07T00:45:08.324Z,58
2018-04-07T00:50:07.875Z,58.2
2018-04-07T01:00:08.239Z,58.5
2018-04-07T01:05:06.114Z,58.8
2018-04-07T01:10:10.546Z,59
2018-04-07T01:15:10.854Z,59
2018-04-07T01:20:31.041Z,59.2
2018-04-07T01:25:05.879Z,59.5
2018-04-07T01:30:03.195Z,59.5
2018-04-07T01:35:08.565Z,60.3
2018-04-07T01:40:28.637Z,60.3
2018-04-07T01:45:05.492Z,60.8
2018-04-07T01:50:05.357Z,60.5
2018-04-07T01:55:11.081Z,60.7
2018-04-07T02:00:38.872Z,60.4
2018-04-07T02:05:05.676Z,60
2018-04-07T02:10:23.750Z,60
2018-04-07T02:15:20.531Z,59.7
2018-04-07T02:20:05.436Z,59.6
2018-04-07T02:25:03.284Z,59.6
2018-04-07T02:30:02.662Z,59.4
2018-04-07T02:35:13.117Z,59.3
2018-04-07T02:40:02.933Z,59.3
2018-04-07T02:45:10.828Z,58.7
2018-04-07T02:50:18.439Z,58.9
2018-04-07T02:55:38.114Z,58.9
2018-04-07T03:00:11.026Z,58.9
2018-04-07T03:05:12.961Z,58.4
2018-04-07T03:10:15.565Z,58.2
2018-04-07T03:15:08.212Z,57.8
2018-04-07T03:20:22.885Z,57.8
2018-04-07T03:25:02.940Z,57.8
2018-04-07T03:30:20.525Z,57.8
2018-04-07T03:35:05.609Z,57.7
2018-04-07T03:40:08.526Z,58
2018-04-07T03:45:05.251Z,57.8
2018-04-07T03:50:07.672Z,57.8
2018-04-07T03:55:10.488Z,57.9
2018-04-07T04:00:28.197Z,6.6
2018-04-07T04:05:21.213Z,57.6
2018-04-07T04:10:05.545Z,57.6
2018-04-07T04:15:23.536Z,57.5
2018-04-07T04:20:07.996Z,57.6
2018-04-07T04:25:23.438Z,57.8
2018-04-07T04:30:07.873Z,57.3
2018-04-07T04:35:28.413Z,57.4
2018-04-07T04:40:05.725Z,57.1
2018-04-07T04:45:13.631Z,57
2018-04-07T04:50:18.142Z,56.7
2018-04-07T04:55:18.410Z,56.5
2018-04-07T05:00:10.297Z,56.7
2018-04-07T05:05:25.746Z,56.6
2018-04-07T05:10:03.593Z,56.6
2018-04-07T05:15:03.077Z,56.6
2018-04-07T05:20:03.791Z,56.2
2018-04-07T05:25:05.391Z,56.4
2018-04-07T05:30:02.738Z,56.3
2018-04-07T05:35:03.027Z,56.3
2018-04-07T05:40:02.896Z,56.3
2018-04-07T05:45:08.254Z,56.2
2018-04-07T05:50:17.786Z,55.8
2018-04-07T05:55:13.024Z,55.8
2018-04-07T06:00:05.852Z,55.6
2018-04-07T06:05:02.663Z,55.6
2018-04-07T06:10:03.542Z,54.9
2018-04-07T06:15:10.486Z,54.4
2018-04-07T06:20:05.425Z,54.1
2018-04-07T06:25:05.796Z,53.6
2018-04-07T06:30:03.261Z,53.6
2018-04-07T06:35:26.314Z,53.6
2018-04-07T06:40:05.673Z,53.6
2018-04-07T06:45:03.446Z,53.6
2018-04-07T06:50:20.538Z,52.4
2018-04-07T06:55:03.339Z,52.4
2018-04-07T07:00:17.862Z,52.1
2018-04-07T07:05:15.667Z,51.7
2018-04-07T07:10:31.276Z,51
2018-04-07T07:15:15.301Z,50.3
2018-04-07T07:20:07.938Z,50.2
2018-04-07T07:25:10.905Z,49.5
2018-04-07T07:30:23.526Z,48.5
2018-04-07T07:35:33.893Z,47.8
2018-04-07T07:40:15.355Z,47.4
2018-04-07T07:45:20.780Z,45.8
2018-04-07T07:50:03.200Z,45.8
2018-04-07T07:55:06.040Z,44.8
2018-04-07T08:00:13.599Z,43.8
2018-04-07T08:05:07.784Z,42.5
2018-04-07T08:10:02.651Z,42.5
2018-04-07T08:15:25.865Z,43.3
2018-04-07T08:20:08.383Z,43
2018-04-07T08:25:10.247Z,41.9
2018-04-07T08:30:07.648Z,40.9
2018-04-07T08:35:23.313Z,41
2018-04-07T08:40:15.764Z,40
2018-04-07T08:45:10.214Z,39.3
2018-04-07T08:50:17.780Z,37.9
2018-04-07T08:55:13.120Z,37.8
2018-04-07T09:00:08.572Z,37.3
2018-04-07T09:05:17.985Z,37.5
2018-04-07T09:10:05.327Z,36.3
2018-04-07T09:15:05.723Z,35.8
2018-04-07T09:20:08.286Z,35.3
2018-04-07T09:25:03.600Z,35.3
2018-04-07T09:30:13.107Z,35.2
2018-04-07T09:35:08.454Z,34.9
2018-04-07T09:45:13.644Z,35.3
2018-04-07T09:50:08.039Z,34
2018-04-07T09:55:03.362Z,34
2018-04-07T10:00:13.062Z,34.3
2018-04-07T10:05:03.132Z,34.4
2018-04-07T10:10:33.388Z,32.8
2018-04-07T10:15:05.257Z,33.1
2018-04-07T10:20:07.778Z,32.7
2018-04-07T10:25:10.725Z,33.8
2018-04-07T10:30:10.673Z,32.8
2018-04-07T10:35:21.197Z,32.4
2018-04-07T10:45:16.159Z,33.6
2018-04-07T10:50:13.767Z,32.3
2018-04-07T10:55:05.500Z,32.5
2018-04-07T11:00:07.980Z,32.6
2018-04-07T11:05:03.255Z,32.5
2018-04-07T11:10:13.254Z,32
2018-04-07T11:15:11.128Z,32
2018-04-07T11:20:12.841Z,31.2
2018-04-07T11:25:18.347Z,30.9
2018-04-07T11:30:05.361Z,30.5
2018-04-07T11:35:13.284Z,29.6
2018-04-07T11:40:07.837Z,29
2018-04-07T11:45:23.358Z,28.3
2018-04-07T11:50:05.269Z,28.6
2018-04-07T11:55:03.123Z,28.6
2018-04-07T12:00:08.542Z,29.5
2018-04-07T12:05:25.930Z,28.8
2018-04-07T12:10:10.404Z,28.5
2018-04-07T12:15:13.432Z,28.4
2018-04-07T12:20:20.633Z,28
2018-04-07T12:25:06.017Z,28.2
2018-04-07T12:30:23.648Z,27.9
2018-04-07T12:35:10.500Z,28.1
2018-04-07T12:40:08.440Z,28.3
2018-04-07T12:45:05.433Z,28.3
2018-04-07T12:50:23.507Z,27.9
2018-04-07T12:55:05.450Z,27.1
2018-04-07T13:00:02.891Z,27.1
2018-04-07T13:05:33.752Z,25
2018-04-07T13:10:02.682Z,25
2018-04-07T13:15:05.727Z,25.3
2018-04-07T13:20:05.786Z,26.4
2018-04-07T13:25:20.471Z,26.2
2018-04-07T13:30:33.378Z,24.7
2018-04-07T13:35:05.313Z,24.7
2018-04-07T13:40:05.802Z,25.3
2018-04-07T13:45:35.736Z,23.5
2018-04-07T13:50:08.330Z,23.2
2018-04-07T13:55:12.914Z,22.9
2018-04-07T14:00:36.379Z,22
2018-04-07T14:05:10.402Z,21.9
2018-04-07T14:10:13.518Z,21.3
2018-04-07T14:15:02.951Z,21.3
2018-04-07T14:20:08.582Z,20.5
2018-04-07T14:25:30.935Z,20.7
2018-04-07T14:30:08.499Z,20.3
2018-04-07T14:35:08.032Z,18.9
2018-04-07T14:40:30.910Z,18.8
2018-04-07T14:45:08.480Z,19.6
2018-04-07T14:50:05.494Z,20.2
2018-04-07T14:55:05.280Z,19.8
2018-04-07T15:00:18.035Z,18.7
2018-04-07T15:05:03.443Z,18.8
2018-04-07T15:15:15.520Z,18.3
2018-04-07T15:20:05.619Z,18.7
2018-04-07T15:25:02.651Z,18.6
2018-04-07T15:35:26.323Z,19.6
2018-04-07T15:40:21.069Z,20.8
2018-04-07T15:45:13.054Z,22
2018-04-07T15:55:07.972Z,24.6
2018-04-07T16:00:38.816Z,25.6
2018-04-07T16:05:03.322Z,25.7
2018-04-07T16:10:08.357Z,26.4
2018-04-07T16:15:10.329Z,26.4
2018-04-07T16:20:05.380Z,26.8
2018-04-07T16:25:13.491Z,26.7
2018-04-07T16:30:08.055Z,26.6
2018-04-07T16:35:08.477Z,27
2018-04-07T16:40:08.587Z,27.4
2018-04-07T16:45:23.241Z,27.8
2018-04-07T16:50:38.150Z,28.7
2018-04-07T16:55:03.568Z,28.7
2018-04-07T17:00:10.667Z,29.7
2018-04-07T17:05:07.689Z,30.2
2018-04-07T17:10:07.641Z,30.6
2018-04-07T17:15:23.492Z,31.5
2018-04-07T17:20:05.744Z,32.4
2018-04-07T17:25:07.678Z,32.6
2018-04-07T17:30:05.641Z,32.9
2018-04-07T17:35:11.160Z,33.5
2018-04-07T17:40:18.242Z,33.9
2018-04-07T17:45:02.706Z,33.9
2018-04-07T17:50:38.539Z,35
2018-04-07T17:55:20.671Z,35.3
2018-04-07T18:00:18.304Z,36.3
2018-04-07T18:05:07.633Z,36.4
2018-04-07T18:10:33.916Z,36.7
2018-04-07T18:15:08.387Z,37.2
2018-04-07T18:20:25.690Z,37.6
2018-04-07T18:25:10.744Z,38
2018-04-07T18:30:05.758Z,38.3
2018-04-07T18:35:15.333Z,38.7
2018-04-07T18:40:10.889Z,39.1
2018-04-07T18:45:12.888Z,39.5
2018-04-07T18:50:21.048Z,40
2018-04-07T18:55:05.258Z,40.2
2018-04-07T19:00:07.738Z,40.6
2018-04-07T19:05:10.714Z,40.6
2018-04-07T19:10:05.118Z,41.4
2018-04-07T19:15:03.132Z,41.4
2018-04-07T19:20:17.767Z,42
2018-04-07T19:25:08.038Z,42.4
2018-04-07T19:30:06.110Z,43.1
2018-04-07T19:35:05.511Z,43.1
2018-04-07T19:40:16.079Z,43.5
2018-04-07T19:50:10.739Z,44.2
2018-04-07T19:55:16.222Z,44.7
2018-04-07T20:00:05.191Z,44.7
2018-04-07T20:05:25.824Z,45.1
2018-04-07T20:10:17.874Z,45.4
2018-04-07T20:15:08.177Z,45.8
2018-04-07T20:20:07.761Z,45.9
2018-04-07T20:30:31.230Z,46.4
2018-04-07T20:35:10.167Z,46.2
2018-04-07T20:40:10.676Z,47.1
2018-04-07T20:45:35.483Z,47.3
2018-04-07T20:50:23.116Z,47.6
2018-04-07T20:55:26.099Z,48.2
2018-04-07T21:00:21.473Z,48.2
2018-04-07T21:05:20.625Z,48.6
2018-04-07T21:10:06.042Z,48.8
2018-04-07T21:15:03.033Z,48.8
2018-04-07T21:20:08.612Z,49.6
2018-04-07T21:25:15.591Z,50
2018-04-07T21:30:05.556Z,50.1
2018-04-07T21:35:18.668Z,50.3
2018-04-07T21:40:08.604Z,51
2018-04-07T21:45:02.954Z,51
2018-04-07T21:50:03.332Z,51.4
2018-04-07T21:55:17.921Z,52.1
2018-04-07T22:00:18.442Z,52.7
2018-04-07T22:05:17.859Z,53.2
2018-04-07T22:10:05.330Z,53.6
2018-04-07T22:15:08.196Z,53.8
2018-04-07T22:20:05.203Z,54.3
2018-04-07T22:25:05.588Z,54.5
2018-04-07T22:30:03.055Z,54.5
2018-04-07T22:35:03.561Z,54.9
2018-04-07T22:40:18.628Z,55.2
2018-04-07T22:50:15.730Z,55.8
2018-04-07T22:55:03.477Z,55.8
2018-04-07T23:00:07.955Z,56.4
2018-04-07T23:05:21.008Z,56.8
2018-04-07T23:10:15.528Z,56.9
2018-04-07T23:15:05.846Z,57.3
2018-04-07T23:20:10.926Z,57.8
2018-04-07T23:25:25.431Z,58.1
2018-04-07T23:30:05.432Z,58
2018-04-07T23:35:05.776Z,7.1
2018-04-07T23:40:07.787Z,58.6
2018-04-07T23:45:23.331Z,58.8
2018-04-07T23:50:22.905Z,59.1
2018-04-07T23:55:05.581Z,59.3
